sensor_id;sensor_type;location;lat;lon;timestamp;P1;durP1;ratioP1;P2;durP2;ratioP2
76459;SDS011;65299;46.084;18.762;2023-11-19T00:01:16;3.58;;;1.83;;
76459;SDS011;65299;46.084;18.762;2023-11-19T00:04:16;5.33;;;1.40;;
76459;SDS011;65299;46.084;18.762;2023-11-19T00:07:17;3.17;;;1.57;;
76459;SDS011;65299;46.084;18.762;2023-11-19T00:10:17;3.50;;;1.23;;
76459;SDS011;65299;46.084;18.762;2023-11-19T00:13:21;6.20;;;2.05;;
76459;SDS011;65299;46.084;18.762;2023-11-19T00:16:21;5.37;;;1.60;;
76459;SDS011;65299;46.084;18.762;2023-11-19T00:19:22;3.10;;;1.67;;
76459;SDS011;65299;46.084;18.762;2023-11-19T00:22:22;4.67;;;2.17;;
76459;SDS011;65299;46.084;18.762;2023-11-19T00:25:23;4.03;;;1.70;;
76459;SDS011;65299;46.084;18.762;2023-11-19T00:28:23;4.17;;;1.60;;
76459;SDS011;65299;46.084;18.762;2023-11-19T00:31:24;3.60;;;1.50;;
76459;SDS011;65299;46.084;18.762;2023-11-19T00:34:27;3.30;;;1.20;;
76459;SDS011;65299;46.084;18.762;2023-11-19T00:37:28;3.77;;;1.50;;
76459;SDS011;65299;46.084;18.762;2023-11-19T00:40:28;2.90;;;1.40;;
76459;SDS011;65299;46.084;18.762;2023-11-19T00:43:29;3.13;;;1.63;;
76459;SDS011;65299;46.084;18.762;2023-11-19T00:46:29;4.83;;;1.90;;
76459;SDS011;65299;46.084;18.762;2023-11-19T00:49:31;3.65;;;1.80;;
76459;SDS011;65299;46.084;18.762;2023-11-19T00:52:32;2.80;;;1.25;;
76459;SDS011;65299;46.084;18.762;2023-11-19T00:55:33;4.40;;;1.70;;
76459;SDS011;65299;46.084;18.762;2023-11-19T00:58:33;3.33;;;1.10;;
76459;SDS011;65299;46.084;18.762;2023-11-19T01:01:34;3.60;;;1.92;;
76459;SDS011;65299;46.084;18.762;2023-11-19T01:04:34;3.00;;;1.40;;
76459;SDS011;65299;46.084;18.762;2023-11-19T01:07:35;5.22;;;1.80;;
76459;SDS011;65299;46.084;18.762;2023-11-19T01:10:38;3.13;;;1.33;;
76459;SDS011;65299;46.084;18.762;2023-11-19T01:13:39;3.15;;;1.42;;
76459;SDS011;65299;46.084;18.762;2023-11-19T01:16:39;4.10;;;1.70;;
76459;SDS011;65299;46.084;18.762;2023-11-19T01:19:40;3.07;;;1.30;;
76459;SDS011;65299;46.084;18.762;2023-11-19T01:22:40;4.13;;;1.80;;
76459;SDS011;65299;46.084;18.762;2023-11-19T01:25:41;2.83;;;1.30;;
76459;SDS011;65299;46.084;18.762;2023-11-19T01:28:41;3.77;;;1.80;;
76459;SDS011;65299;46.084;18.762;2023-11-19T01:31:45;4.05;;;1.63;;
76459;SDS011;65299;46.084;18.762;2023-11-19T01:34:51;3.03;;;1.60;;
76459;SDS011;65299;46.084;18.762;2023-11-19T01:37:51;5.33;;;1.73;;
76459;SDS011;65299;46.084;18.762;2023-11-19T01:40:55;4.30;;;1.97;;
76459;SDS011;65299;46.084;18.762;2023-11-19T01:43:56;5.78;;;2.33;;
76459;SDS011;65299;46.084;18.762;2023-11-19T01:46:57;4.40;;;1.80;;
76459;SDS011;65299;46.084;18.762;2023-11-19T01:49:57;3.13;;;1.40;;
76459;SDS011;65299;46.084;18.762;2023-11-19T01:52:59;4.50;;;1.55;;
76459;SDS011;65299;46.084;18.762;2023-11-19T01:55:59;4.50;;;1.90;;
76459;SDS011;65299;46.084;18.762;2023-11-19T01:59:01;3.47;;;2.00;;
76459;SDS011;65299;46.084;18.762;2023-11-19T02:02:02;4.20;;;2.13;;
76459;SDS011;65299;46.084;18.762;2023-11-19T02:05:03;4.90;;;2.33;;
76459;SDS011;65299;46.084;18.762;2023-11-19T02:08:04;4.07;;;2.03;;
76459;SDS011;65299;46.084;18.762;2023-11-19T02:11:04;4.70;;;2.27;;
76459;SDS011;65299;46.084;18.762;2023-11-19T02:14:07;4.00;;;1.83;;
76459;SDS011;65299;46.084;18.762;2023-11-19T02:17:07;3.13;;;1.50;;
76459;SDS011;65299;46.084;18.762;2023-11-19T02:20:26;4.23;;;1.73;;
76459;SDS011;65299;46.084;18.762;2023-11-19T02:23:26;3.38;;;1.95;;
76459;SDS011;65299;46.084;18.762;2023-11-19T02:26:36;5.23;;;1.60;;
76459;SDS011;65299;46.084;18.762;2023-11-19T02:29:56;3.58;;;1.70;;
76459;SDS011;65299;46.084;18.762;2023-11-19T02:32:58;2.67;;;1.45;;
76459;SDS011;65299;46.084;18.762;2023-11-19T02:36:01;3.95;;;1.90;;
76459;SDS011;65299;46.084;18.762;2023-11-19T02:39:03;4.10;;;1.50;;
76459;SDS011;65299;46.084;18.762;2023-11-19T02:42:08;5.43;;;2.00;;
76459;SDS011;65299;46.084;18.762;2023-11-19T02:45:08;3.20;;;1.73;;
76459;SDS011;65299;46.084;18.762;2023-11-19T02:48:14;3.20;;;1.60;;
76459;SDS011;65299;46.084;18.762;2023-11-19T02:51:15;3.65;;;1.90;;
76459;SDS011;65299;46.084;18.762;2023-11-19T02:54:16;7.13;;;2.30;;
76459;SDS011;65299;46.084;18.762;2023-11-19T02:57:16;3.97;;;1.90;;
76459;SDS011;65299;46.084;18.762;2023-11-19T03:00:20;5.33;;;2.37;;
76459;SDS011;65299;46.084;18.762;2023-11-19T03:03:28;6.30;;;2.35;;
76459;SDS011;65299;46.084;18.762;2023-11-19T03:06:38;3.47;;;1.42;;
76459;SDS011;65299;46.084;18.762;2023-11-19T03:09:38;4.40;;;1.63;;
76459;SDS011;65299;46.084;18.762;2023-11-19T03:12:40;4.07;;;2.10;;
76459;SDS011;65299;46.084;18.762;2023-11-19T03:15:41;6.00;;;2.25;;
76459;SDS011;65299;46.084;18.762;2023-11-19T03:18:42;5.03;;;1.90;;
76459;SDS011;65299;46.084;18.762;2023-11-19T03:21:42;6.33;;;2.53;;
76459;SDS011;65299;46.084;18.762;2023-11-19T03:24:42;5.40;;;1.92;;
76459;SDS011;65299;46.084;18.762;2023-11-19T03:27:43;6.17;;;2.27;;
76459;SDS011;65299;46.084;18.762;2023-11-19T03:30:43;4.40;;;2.37;;
76459;SDS011;65299;46.084;18.762;2023-11-19T03:33:44;9.03;;;4.27;;
76459;SDS011;65299;46.084;18.762;2023-11-19T03:36:45;6.75;;;3.00;;
76459;SDS011;65299;46.084;18.762;2023-11-19T03:39:45;7.63;;;3.08;;
76459;SDS011;65299;46.084;18.762;2023-11-19T03:42:46;6.27;;;2.40;;
76459;SDS011;65299;46.084;18.762;2023-11-19T03:45:46;6.37;;;3.07;;
76459;SDS011;65299;46.084;18.762;2023-11-19T03:48:47;30.73;;;10.10;;
76459;SDS011;65299;46.084;18.762;2023-11-19T03:51:49;7.57;;;3.05;;
76459;SDS011;65299;46.084;18.762;2023-11-19T03:54:49;9.13;;;3.67;;
76459;SDS011;65299;46.084;18.762;2023-11-19T03:57:50;8.60;;;3.50;;
76459;SDS011;65299;46.084;18.762;2023-11-19T04:00:50;15.37;;;4.77;;
76459;SDS011;65299;46.084;18.762;2023-11-19T04:03:51;14.87;;;5.67;;
76459;SDS011;65299;46.084;18.762;2023-11-19T04:06:51;12.87;;;4.80;;
76459;SDS011;65299;46.084;18.762;2023-11-19T04:09:51;14.23;;;4.80;;
76459;SDS011;65299;46.084;18.762;2023-11-19T04:12:52;12.20;;;4.47;;
76459;SDS011;65299;46.084;18.762;2023-11-19T04:15:52;13.63;;;4.73;;
76459;SDS011;65299;46.084;18.762;2023-11-19T04:18:53;13.93;;;4.53;;
76459;SDS011;65299;46.084;18.762;2023-11-19T04:21:53;12.30;;;4.50;;
76459;SDS011;65299;46.084;18.762;2023-11-19T04:24:54;15.63;;;3.78;;
76459;SDS011;65299;46.084;18.762;2023-11-19T04:27:54;11.23;;;3.83;;
76459;SDS011;65299;46.084;18.762;2023-11-19T04:30:54;10.37;;;4.17;;
76459;SDS011;65299;46.084;18.762;2023-11-19T04:33:55;9.97;;;4.30;;
76459;SDS011;65299;46.084;18.762;2023-11-19T04:36:55;11.13;;;3.92;;
76459;SDS011;65299;46.084;18.762;2023-11-19T04:39:56;11.17;;;4.07;;
76459;SDS011;65299;46.084;18.762;2023-11-19T04:42:56;14.73;;;5.77;;
76459;SDS011;65299;46.084;18.762;2023-11-19T04:45:56;11.23;;;4.83;;
76459;SDS011;65299;46.084;18.762;2023-11-19T04:48:57;11.55;;;5.00;;
76459;SDS011;65299;46.084;18.762;2023-11-19T04:51:58;12.00;;;4.20;;
76459;SDS011;65299;46.084;18.762;2023-11-19T04:54:59;8.85;;;4.45;;
76459;SDS011;65299;46.084;18.762;2023-11-19T04:57:59;10.07;;;4.27;;
76459;SDS011;65299;46.084;18.762;2023-11-19T05:00:59;9.77;;;3.70;;
76459;SDS011;65299;46.084;18.762;2023-11-19T05:04:00;8.35;;;3.63;;
76459;SDS011;65299;46.084;18.762;2023-11-19T05:07:00;10.03;;;3.77;;
76459;SDS011;65299;46.084;18.762;2023-11-19T05:10:01;10.73;;;4.93;;
76459;SDS011;65299;46.084;18.762;2023-11-19T05:13:03;12.25;;;4.90;;
76459;SDS011;65299;46.084;18.762;2023-11-19T05:16:04;11.60;;;4.97;;
76459;SDS011;65299;46.084;18.762;2023-11-19T05:19:04;14.05;;;5.32;;
76459;SDS011;65299;46.084;18.762;2023-11-19T05:22:05;12.63;;;5.83;;
76459;SDS011;65299;46.084;18.762;2023-11-19T05:25:06;14.77;;;6.55;;
76459;SDS011;65299;46.084;18.762;2023-11-19T05:28:07;15.38;;;5.80;;
76459;SDS011;65299;46.084;18.762;2023-11-19T05:31:08;13.87;;;5.87;;
76459;SDS011;65299;46.084;18.762;2023-11-19T05:34:08;15.57;;;5.57;;
76459;SDS011;65299;46.084;18.762;2023-11-19T05:37:08;19.43;;;6.63;;
76459;SDS011;65299;46.084;18.762;2023-11-19T05:40:10;24.08;;;8.43;;
76459;SDS011;65299;46.084;18.762;2023-11-19T05:43:20;21.93;;;7.07;;
76459;SDS011;65299;46.084;18.762;2023-11-19T05:46:21;21.95;;;7.07;;
76459;SDS011;65299;46.084;18.762;2023-11-19T05:49:22;18.98;;;6.55;;
76459;SDS011;65299;46.084;18.762;2023-11-19T05:52:23;19.93;;;6.60;;
76459;SDS011;65299;46.084;18.762;2023-11-19T05:55:23;19.13;;;5.93;;
76459;SDS011;65299;46.084;18.762;2023-11-19T05:58:25;18.30;;;6.60;;
76459;SDS011;65299;46.084;18.762;2023-11-19T06:01:28;20.83;;;7.97;;
76459;SDS011;65299;46.084;18.762;2023-11-19T06:04:31;22.05;;;10.68;;
76459;SDS011;65299;46.084;18.762;2023-11-19T06:07:32;17.73;;;8.60;;
76459;SDS011;65299;46.084;18.762;2023-11-19T06:10:33;18.92;;;8.20;;
76459;SDS011;65299;46.084;18.762;2023-11-19T06:13:33;16.20;;;7.50;;
76459;SDS011;65299;46.084;18.762;2023-11-19T06:16:34;13.43;;;6.50;;
76459;SDS011;65299;46.084;18.762;2023-11-19T06:19:34;10.80;;;6.00;;
76459;SDS011;65299;46.084;18.762;2023-11-19T06:22:35;16.27;;;6.27;;
76459;SDS011;65299;46.084;18.762;2023-11-19T06:25:35;16.13;;;7.03;;
76459;SDS011;65299;46.084;18.762;2023-11-19T06:28:36;21.23;;;10.90;;
76459;SDS011;65299;46.084;18.762;2023-11-19T06:31:36;21.17;;;10.20;;
76459;SDS011;65299;46.084;18.762;2023-11-19T06:34:41;17.25;;;8.70;;
76459;SDS011;65299;46.084;18.762;2023-11-19T06:37:41;19.00;;;8.47;;
76459;SDS011;65299;46.084;18.762;2023-11-19T06:40:42;17.55;;;8.50;;
76459;SDS011;65299;46.084;18.762;2023-11-19T06:43:42;15.87;;;8.23;;
76459;SDS011;65299;46.084;18.762;2023-11-19T06:46:43;19.30;;;8.68;;
76459;SDS011;65299;46.084;18.762;2023-11-19T06:49:44;17.13;;;7.70;;
76459;SDS011;65299;46.084;18.762;2023-11-19T06:52:45;12.25;;;5.88;;
76459;SDS011;65299;46.084;18.762;2023-11-19T06:55:46;13.43;;;5.87;;
76459;SDS011;65299;46.084;18.762;2023-11-19T06:58:46;13.50;;;5.70;;
76459;SDS011;65299;46.084;18.762;2023-11-19T07:01:48;14.53;;;5.53;;
76459;SDS011;65299;46.084;18.762;2023-11-19T07:04:49;11.25;;;5.22;;
76459;SDS011;65299;46.084;18.762;2023-11-19T07:07:49;12.07;;;5.10;;
76459;SDS011;65299;46.084;18.762;2023-11-19T07:10:49;13.37;;;5.60;;
76459;SDS011;65299;46.084;18.762;2023-11-19T07:13:50;12.80;;;5.45;;
76459;SDS011;65299;46.084;18.762;2023-11-19T07:16:50;10.93;;;5.50;;
76459;SDS011;65299;46.084;18.762;2023-11-19T07:19:51;10.83;;;4.87;;
76459;SDS011;65299;46.084;18.762;2023-11-19T07:22:51;10.43;;;4.57;;
76459;SDS011;65299;46.084;18.762;2023-11-19T07:25:51;9.45;;;3.78;;
76459;SDS011;65299;46.084;18.762;2023-11-19T07:28:53;8.33;;;4.57;;
76459;SDS011;65299;46.084;18.762;2023-11-19T07:31:55;8.48;;;3.83;;
76459;SDS011;65299;46.084;18.762;2023-11-19T07:34:56;9.77;;;4.10;;
76459;SDS011;65299;46.084;18.762;2023-11-19T07:37:56;9.03;;;4.17;;
76459;SDS011;65299;46.084;18.762;2023-11-19T07:40:57;8.85;;;4.30;;
76459;SDS011;65299;46.084;18.762;2023-11-19T07:43:58;8.10;;;4.13;;
76459;SDS011;65299;46.084;18.762;2023-11-19T07:46:58;9.63;;;4.80;;
76459;SDS011;65299;46.084;18.762;2023-11-19T07:49:58;9.33;;;5.07;;
76459;SDS011;65299;46.084;18.762;2023-11-19T07:52:59;9.55;;;4.95;;
76459;SDS011;65299;46.084;18.762;2023-11-19T07:56:00;8.30;;;4.00;;
76459;SDS011;65299;46.084;18.762;2023-11-19T07:59:01;9.70;;;4.28;;
76459;SDS011;65299;46.084;18.762;2023-11-19T08:02:02;10.02;;;5.20;;
76459;SDS011;65299;46.084;18.762;2023-11-19T08:05:05;11.02;;;5.43;;
76459;SDS011;65299;46.084;18.762;2023-11-19T08:08:05;13.73;;;5.37;;
76459;SDS011;65299;46.084;18.762;2023-11-19T08:11:07;12.77;;;5.65;;
76459;SDS011;65299;46.084;18.762;2023-11-19T08:14:07;10.48;;;5.53;;
76459;SDS011;65299;46.084;18.762;2023-11-19T08:17:08;10.60;;;5.67;;
76459;SDS011;65299;46.084;18.762;2023-11-19T08:20:09;11.05;;;6.40;;
76459;SDS011;65299;46.084;18.762;2023-11-19T08:23:10;12.10;;;6.47;;
76459;SDS011;65299;46.084;18.762;2023-11-19T08:26:11;14.80;;;6.55;;
76459;SDS011;65299;46.084;18.762;2023-11-19T08:29:11;14.97;;;6.40;;
76459;SDS011;65299;46.084;18.762;2023-11-19T08:32:11;9.43;;;4.57;;
76459;SDS011;65299;46.084;18.762;2023-11-19T08:35:12;10.90;;;4.73;;
76459;SDS011;65299;46.084;18.762;2023-11-19T08:38:12;15.33;;;5.60;;
76459;SDS011;65299;46.084;18.762;2023-11-19T08:41:12;10.05;;;4.80;;
76459;SDS011;65299;46.084;18.762;2023-11-19T08:44:13;14.97;;;6.10;;
76459;SDS011;65299;46.084;18.762;2023-11-19T08:47:14;12.90;;;6.17;;
76459;SDS011;65299;46.084;18.762;2023-11-19T08:50:16;10.63;;;5.40;;
76459;SDS011;65299;46.084;18.762;2023-11-19T08:53:16;11.00;;;5.30;;
76459;SDS011;65299;46.084;18.762;2023-11-19T08:56:17;10.17;;;4.80;;
76459;SDS011;65299;46.084;18.762;2023-11-19T08:59:17;8.73;;;4.40;;
76459;SDS011;65299;46.084;18.762;2023-11-19T09:02:19;10.75;;;4.25;;
76459;SDS011;65299;46.084;18.762;2023-11-19T09:05:19;8.00;;;4.30;;
76459;SDS011;65299;46.084;18.762;2023-11-19T09:08:19;13.23;;;5.60;;
76459;SDS011;65299;46.084;18.762;2023-11-19T09:11:20;10.10;;;4.73;;
76459;SDS011;65299;46.084;18.762;2023-11-19T09:14:20;11.40;;;4.68;;
76459;SDS011;65299;46.084;18.762;2023-11-19T09:17:25;9.13;;;4.30;;
76459;SDS011;65299;46.084;18.762;2023-11-19T09:20:26;8.05;;;3.92;;
76459;SDS011;65299;46.084;18.762;2023-11-19T09:23:26;6.67;;;3.23;;
76459;SDS011;65299;46.084;18.762;2023-11-19T09:26:29;8.40;;;3.97;;
76459;SDS011;65299;46.084;18.762;2023-11-19T09:29:33;6.35;;;3.42;;
76459;SDS011;65299;46.084;18.762;2023-11-19T09:32:34;8.83;;;3.73;;
76459;SDS011;65299;46.084;18.762;2023-11-19T09:35:34;10.35;;;4.07;;
76459;SDS011;65299;46.084;18.762;2023-11-19T09:38:34;9.73;;;4.97;;
76459;SDS011;65299;46.084;18.762;2023-11-19T09:41:38;7.40;;;3.85;;
76459;SDS011;65299;46.084;18.762;2023-11-19T09:44:38;7.10;;;3.87;;
76459;SDS011;65299;46.084;18.762;2023-11-19T09:47:42;6.95;;;3.00;;
76459;SDS011;65299;46.084;18.762;2023-11-19T09:50:47;6.23;;;3.77;;
76459;SDS011;65299;46.084;18.762;2023-11-19T09:53:48;7.80;;;4.03;;
76459;SDS011;65299;46.084;18.762;2023-11-19T09:56:49;7.70;;;3.90;;
76459;SDS011;65299;46.084;18.762;2023-11-19T09:59:50;6.33;;;3.40;;
76459;SDS011;65299;46.084;18.762;2023-11-19T10:02:52;5.70;;;3.20;;
76459;SDS011;65299;46.084;18.762;2023-11-19T10:05:54;5.55;;;3.42;;
76459;SDS011;65299;46.084;18.762;2023-11-19T10:08:56;6.60;;;3.08;;
76459;SDS011;65299;46.084;18.762;2023-11-19T10:11:56;4.60;;;2.83;;
76459;SDS011;65299;46.084;18.762;2023-11-19T10:14:57;5.63;;;3.20;;
76459;SDS011;65299;46.084;18.762;2023-11-19T10:17:58;5.07;;;2.75;;
76459;SDS011;65299;46.084;18.762;2023-11-19T10:20:58;6.63;;;2.97;;
76459;SDS011;65299;46.084;18.762;2023-11-19T10:23:59;9.37;;;4.50;;
76459;SDS011;65299;46.084;18.762;2023-11-19T10:27:00;12.55;;;5.43;;
76459;SDS011;65299;46.084;18.762;2023-11-19T10:30:03;12.65;;;4.60;;
76459;SDS011;65299;46.084;18.762;2023-11-19T10:33:09;7.60;;;3.25;;
76459;SDS011;65299;46.084;18.762;2023-11-19T10:36:15;7.32;;;3.55;;
76459;SDS011;65299;46.084;18.762;2023-11-19T10:39:15;6.57;;;3.33;;
76459;SDS011;65299;46.084;18.762;2023-11-19T10:42:16;8.40;;;2.83;;
76459;SDS011;65299;46.084;18.762;2023-11-19T10:45:23;5.70;;;3.10;;
76459;SDS011;65299;46.084;18.762;2023-11-19T10:48:24;5.88;;;2.97;;
76459;SDS011;65299;46.084;18.762;2023-11-19T10:51:25;8.60;;;3.92;;
76459;SDS011;65299;46.084;18.762;2023-11-19T10:54:25;7.07;;;4.17;;
76459;SDS011;65299;46.084;18.762;2023-11-19T10:57:26;5.32;;;3.13;;
76459;SDS011;65299;46.084;18.762;2023-11-19T11:00:43;6.07;;;2.70;;
76459;SDS011;65299;46.084;18.762;2023-11-19T11:03:45;8.85;;;2.90;;
76459;SDS011;65299;46.084;18.762;2023-11-19T11:06:51;7.28;;;2.97;;
76459;SDS011;65299;46.084;18.762;2023-11-19T11:09:53;6.85;;;3.25;;
76459;SDS011;65299;46.084;18.762;2023-11-19T11:12:54;7.73;;;3.10;;
76459;SDS011;65299;46.084;18.762;2023-11-19T11:15:59;5.90;;;3.08;;
76459;SDS011;65299;46.084;18.762;2023-11-19T11:19:00;6.95;;;3.10;;
76459;SDS011;65299;46.084;18.762;2023-11-19T11:22:01;5.82;;;3.33;;
76459;SDS011;65299;46.084;18.762;2023-11-19T11:35:47;3.92;;;2.40;;
76459;SDS011;65299;46.084;18.762;2023-11-19T11:38:53;4.28;;;2.20;;
76459;SDS011;65299;46.084;18.762;2023-11-19T11:45:17;6.70;;;2.60;;
76459;SDS011;65299;46.084;18.762;2023-11-19T11:48:18;4.72;;;2.47;;
76459;SDS011;65299;46.084;18.762;2023-11-19T11:54:44;6.13;;;3.10;;
76459;SDS011;65299;46.084;18.762;2023-11-19T11:57:45;6.85;;;3.25;;
76459;SDS011;65299;46.084;18.762;2023-11-19T12:00:45;5.83;;;3.00;;
76459;SDS011;65299;46.084;18.762;2023-11-19T12:03:48;5.30;;;2.42;;
76459;SDS011;65299;46.084;18.762;2023-11-19T12:07:06;4.78;;;2.60;;
76459;SDS011;65299;46.084;18.762;2023-11-19T12:10:08;4.20;;;2.33;;
76459;SDS011;65299;46.084;18.762;2023-11-19T12:13:12;5.57;;;2.25;;
76459;SDS011;65299;46.084;18.762;2023-11-19T12:16:13;5.95;;;2.50;;
76459;SDS011;65299;46.084;18.762;2023-11-19T12:19:13;5.50;;;2.40;;
76459;SDS011;65299;46.084;18.762;2023-11-19T12:22:14;5.20;;;2.80;;
76459;SDS011;65299;46.084;18.762;2023-11-19T12:25:16;5.65;;;2.90;;
76459;SDS011;65299;46.084;18.762;2023-11-19T12:28:17;4.35;;;2.65;;
76459;SDS011;65299;46.084;18.762;2023-11-19T12:31:17;5.17;;;2.37;;
76459;SDS011;65299;46.084;18.762;2023-11-19T12:34:18;5.80;;;2.55;;
76459;SDS011;65299;46.084;18.762;2023-11-19T12:37:19;4.20;;;2.30;;
76459;SDS011;65299;46.084;18.762;2023-11-19T12:40:21;4.93;;;2.53;;
76459;SDS011;65299;46.084;18.762;2023-11-19T12:43:23;6.90;;;3.20;;
76459;SDS011;65299;46.084;18.762;2023-11-19T12:46:24;8.27;;;4.23;;
76459;SDS011;65299;46.084;18.762;2023-11-19T12:49:24;5.30;;;3.10;;
76459;SDS011;65299;46.084;18.762;2023-11-19T12:52:25;5.45;;;2.45;;
76459;SDS011;65299;46.084;18.762;2023-11-19T12:55:29;8.97;;;3.00;;
76459;SDS011;65299;46.084;18.762;2023-11-19T12:58:34;6.18;;;3.03;;
76459;SDS011;65299;46.084;18.762;2023-11-19T13:01:36;6.70;;;3.27;;
76459;SDS011;65299;46.084;18.762;2023-11-19T13:04:38;6.70;;;3.10;;
76459;SDS011;65299;46.084;18.762;2023-11-19T13:07:38;6.30;;;3.03;;
76459;SDS011;65299;46.084;18.762;2023-11-19T13:16:55;7.53;;;3.77;;
76459;SDS011;65299;46.084;18.762;2023-11-19T13:19:56;8.93;;;4.95;;
76459;SDS011;65299;46.084;18.762;2023-11-19T13:22:57;8.27;;;4.07;;
76459;SDS011;65299;46.084;18.762;2023-11-19T13:25:59;9.02;;;4.20;;
76459;SDS011;65299;46.084;18.762;2023-11-19T13:29:00;8.43;;;4.27;;
76459;SDS011;65299;46.084;18.762;2023-11-19T13:32:00;6.55;;;3.40;;
76459;SDS011;65299;46.084;18.762;2023-11-19T13:35:01;7.90;;;3.73;;
76459;SDS011;65299;46.084;18.762;2023-11-19T13:38:02;7.40;;;4.07;;
76459;SDS011;65299;46.084;18.762;2023-11-19T13:41:03;8.57;;;4.40;;
76459;SDS011;65299;46.084;18.762;2023-11-19T13:44:04;7.90;;;3.95;;
76459;SDS011;65299;46.084;18.762;2023-11-19T13:47:05;7.80;;;4.10;;
76459;SDS011;65299;46.084;18.762;2023-11-19T13:50:05;9.88;;;4.68;;
76459;SDS011;65299;46.084;18.762;2023-11-19T13:53:06;8.80;;;3.80;;
76459;SDS011;65299;46.084;18.762;2023-11-19T13:56:07;8.05;;;3.70;;
76459;SDS011;65299;46.084;18.762;2023-11-19T13:59:08;7.27;;;3.40;;
76459;SDS011;65299;46.084;18.762;2023-11-19T14:02:08;15.43;;;6.55;;
76459;SDS011;65299;46.084;18.762;2023-11-19T14:05:09;14.05;;;6.07;;
76459;SDS011;65299;46.084;18.762;2023-11-19T14:08:10;11.60;;;4.90;;
76459;SDS011;65299;46.084;18.762;2023-11-19T14:11:11;10.60;;;4.68;;
76459;SDS011;65299;46.084;18.762;2023-11-19T14:14:11;9.07;;;4.60;;
76459;SDS011;65299;46.084;18.762;2023-11-19T14:17:12;9.60;;;4.70;;
76459;SDS011;65299;46.084;18.762;2023-11-19T14:20:12;10.65;;;5.10;;
76459;SDS011;65299;46.084;18.762;2023-11-19T14:23:13;13.63;;;6.67;;
76459;SDS011;65299;46.084;18.762;2023-11-19T14:26:13;12.37;;;5.67;;
76459;SDS011;65299;46.084;18.762;2023-11-19T14:29:14;9.67;;;4.97;;
76459;SDS011;65299;46.084;18.762;2023-11-19T14:32:15;8.52;;;3.92;;
76459;SDS011;65299;46.084;18.762;2023-11-19T14:35:16;10.02;;;4.30;;
76459;SDS011;65299;46.084;18.762;2023-11-19T14:38:16;7.87;;;3.90;;
76459;SDS011;65299;46.084;18.762;2023-11-19T14:41:17;9.07;;;5.47;;
76459;SDS011;65299;46.084;18.762;2023-11-19T14:44:17;15.00;;;7.18;;
76459;SDS011;65299;46.084;18.762;2023-11-19T14:47:19;20.50;;;10.03;;
76459;SDS011;65299;46.084;18.762;2023-11-19T14:50:20;24.40;;;11.77;;
76459;SDS011;65299;46.084;18.762;2023-11-19T14:53:20;21.47;;;10.67;;
76459;SDS011;65299;46.084;18.762;2023-11-19T14:56:22;21.48;;;11.15;;
76459;SDS011;65299;46.084;18.762;2023-11-19T14:59:22;16.97;;;9.37;;
76459;SDS011;65299;46.084;18.762;2023-11-19T15:02:23;12.53;;;6.10;;
76459;SDS011;65299;46.084;18.762;2023-11-19T15:05:23;12.33;;;6.47;;
76459;SDS011;65299;46.084;18.762;2023-11-19T15:08:24;11.98;;;7.22;;
76459;SDS011;65299;46.084;18.762;2023-11-19T15:11:24;10.10;;;6.03;;
76459;SDS011;65299;46.084;18.762;2023-11-19T15:14:24;9.80;;;4.80;;
76459;SDS011;65299;46.084;18.762;2023-11-19T15:17:25;8.43;;;4.53;;
76459;SDS011;65299;46.084;18.762;2023-11-19T15:20:25;8.20;;;4.80;;
76459;SDS011;65299;46.084;18.762;2023-11-19T15:23:29;8.90;;;5.00;;
76459;SDS011;65299;46.084;18.762;2023-11-19T15:26:30;8.90;;;4.20;;
76459;SDS011;65299;46.084;18.762;2023-11-19T15:29:30;9.50;;;5.50;;
76459;SDS011;65299;46.084;18.762;2023-11-19T15:32:34;9.68;;;5.22;;
76459;SDS011;65299;46.084;18.762;2023-11-19T15:35:35;11.70;;;5.68;;
76459;SDS011;65299;46.084;18.762;2023-11-19T15:38:36;11.70;;;5.80;;
76459;SDS011;65299;46.084;18.762;2023-11-19T15:41:36;13.87;;;7.70;;
76459;SDS011;65299;46.084;18.762;2023-11-19T15:44:37;16.37;;;9.73;;
76459;SDS011;65299;46.084;18.762;2023-11-19T15:47:38;20.40;;;11.05;;
76459;SDS011;65299;46.084;18.762;2023-11-19T15:50:39;19.73;;;10.38;;
76459;SDS011;65299;46.084;18.762;2023-11-19T15:53:40;15.83;;;8.93;;
76459;SDS011;65299;46.084;18.762;2023-11-19T15:56:40;22.67;;;11.48;;
76459;SDS011;65299;46.084;18.762;2023-11-19T15:59:41;17.03;;;8.53;;
76459;SDS011;65299;46.084;18.762;2023-11-19T16:02:41;13.00;;;6.57;;
76459;SDS011;65299;46.084;18.762;2023-11-19T16:05:42;13.33;;;6.87;;
76459;SDS011;65299;46.084;18.762;2023-11-19T16:08:42;15.25;;;7.30;;
76459;SDS011;65299;46.084;18.762;2023-11-19T16:11:42;17.30;;;7.23;;
76459;SDS011;65299;46.084;18.762;2023-11-19T16:14:43;15.18;;;6.68;;
76459;SDS011;65299;46.084;18.762;2023-11-19T16:17:44;13.80;;;7.03;;
76459;SDS011;65299;46.084;18.762;2023-11-19T16:20:44;16.87;;;6.90;;
76459;SDS011;65299;46.084;18.762;2023-11-19T16:23:45;26.60;;;10.73;;
76459;SDS011;65299;46.084;18.762;2023-11-19T16:26:45;35.13;;;14.30;;
76459;SDS011;65299;46.084;18.762;2023-11-19T16:29:46;24.57;;;11.27;;
76459;SDS011;65299;46.084;18.762;2023-11-19T16:32:53;29.40;;;12.87;;
76459;SDS011;65299;46.084;18.762;2023-11-19T16:35:56;24.48;;;12.30;;
76459;SDS011;65299;46.084;18.762;2023-11-19T16:39:00;32.83;;;14.73;;
76459;SDS011;65299;46.084;18.762;2023-11-19T16:42:01;33.30;;;15.18;;
76459;SDS011;65299;46.084;18.762;2023-11-19T16:45:01;30.57;;;14.47;;
76459;SDS011;65299;46.084;18.762;2023-11-19T16:48:02;37.47;;;16.30;;
76459;SDS011;65299;46.084;18.762;2023-11-19T16:51:10;35.22;;;14.68;;
76459;SDS011;65299;46.084;18.762;2023-11-19T16:54:13;29.17;;;14.18;;
76459;SDS011;65299;46.084;18.762;2023-11-19T16:57:14;35.67;;;17.97;;
76459;SDS011;65299;46.084;18.762;2023-11-19T17:00:15;36.58;;;15.98;;
76459;SDS011;65299;46.084;18.762;2023-11-19T17:03:15;39.57;;;19.57;;
76459;SDS011;65299;46.084;18.762;2023-11-19T17:06:16;51.13;;;20.42;;
76459;SDS011;65299;46.084;18.762;2023-11-19T17:09:16;51.37;;;21.80;;
76459;SDS011;65299;46.084;18.762;2023-11-19T17:12:17;45.30;;;19.53;;
76459;SDS011;65299;46.084;18.762;2023-11-19T17:15:17;48.07;;;21.30;;
76459;SDS011;65299;46.084;18.762;2023-11-19T17:18:17;46.85;;;20.23;;
76459;SDS011;65299;46.084;18.762;2023-11-19T17:21:18;45.60;;;21.37;;
76459;SDS011;65299;46.084;18.762;2023-11-19T17:24:19;42.28;;;20.13;;
76459;SDS011;65299;46.084;18.762;2023-11-19T17:27:19;42.27;;;20.10;;
76459;SDS011;65299;46.084;18.762;2023-11-19T17:30:20;46.77;;;19.57;;
76459;SDS011;65299;46.084;18.762;2023-11-19T17:33:22;38.83;;;18.02;;
76459;SDS011;65299;46.084;18.762;2023-11-19T17:36:22;38.33;;;17.87;;
76459;SDS011;65299;46.084;18.762;2023-11-19T17:39:23;42.58;;;18.23;;
76459;SDS011;65299;46.084;18.762;2023-11-19T17:42:23;47.30;;;20.57;;
76459;SDS011;65299;46.084;18.762;2023-11-19T17:45:27;45.33;;;21.53;;
76459;SDS011;65299;46.084;18.762;2023-11-19T17:48:28;55.45;;;23.23;;
76459;SDS011;65299;46.084;18.762;2023-11-19T17:51:29;60.23;;;25.43;;
76459;SDS011;65299;46.084;18.762;2023-11-19T17:54:29;67.80;;;30.67;;
76459;SDS011;65299;46.084;18.762;2023-11-19T17:57:30;71.50;;;31.40;;
76459;SDS011;65299;46.084;18.762;2023-11-19T18:00:31;69.63;;;31.90;;
76459;SDS011;65299;46.084;18.762;2023-11-19T18:03:31;67.90;;;34.57;;
76459;SDS011;65299;46.084;18.762;2023-11-19T18:06:32;74.73;;;35.13;;
76459;SDS011;65299;46.084;18.762;2023-11-19T18:09:34;67.65;;;32.85;;